createdAt,value
2018-08-19T00:02:16.963Z,97379.89
2018-08-19T00:04:58.818Z,97377.45
2018-08-19T00:07:26.040Z,97379.31
2018-08-19T00:09:53.237Z,97379.87
2018-08-19T00:12:58.044Z,97374.52
2018-08-19T00:15:25.169Z,97373.22
2018-08-19T00:17:52.325Z,97369.72
2018-08-19T00:20:19.476Z,97374.58
2018-08-19T00:22:47.550Z,97374.93
2018-08-19T00:25:26.242Z,97380.69
2018-08-19T00:27:53.411Z,97374.30
2018-08-19T00:30:20.592Z,97382.20
2018-08-19T00:32:47.761Z,97379.13
2018-08-19T00:35:21.768Z,97381.52
2018-08-19T00:37:48.871Z,97375.83
2018-08-19T00:40:16.044Z,97377.73
2018-08-19T00:42:43.476Z,97374.97
2018-08-19T00:45:10.647Z,97384.31
2018-08-19T00:47:37.816Z,97384.98
2018-08-19T00:50:04.972Z,97377.36
2018-08-19T00:52:32.133Z,97377.95
2018-08-19T00:54:59.228Z,97375.43
2018-08-19T00:57:26.448Z,97372.70
2018-08-19T00:59:53.572Z,97376.77
2018-08-19T01:02:20.777Z,97374.04
2018-08-19T01:04:49.550Z,97381.22
2018-08-19T01:07:16.732Z,97385.11
2018-08-19T01:09:43.915Z,97381.09
2018-08-19T01:12:11.062Z,97382.08
2018-08-19T01:14:38.235Z,97383.48
2018-08-19T01:17:05.485Z,97382.76
2018-08-19T01:19:32.634Z,97381.41
2018-08-19T01:21:59.873Z,97383.23
2018-08-19T01:24:27.113Z,97375.89
2018-08-19T01:26:54.328Z,97375.77
2018-08-19T01:29:35.130Z,97368.52
2018-08-19T01:32:08.237Z,97373.28
2018-08-19T01:34:35.396Z,97369.89
2018-08-19T01:37:02.617Z,97364.78
2018-08-19T01:39:29.916Z,97368.93
2018-08-19T01:41:59.152Z,97371.35
2018-08-19T01:44:26.280Z,97366.05
2018-08-19T01:46:53.382Z,97371.02
2018-08-19T01:49:20.493Z,97374.42
2018-08-19T01:51:47.615Z,97378.68
2018-08-19T01:54:18.946Z,97379.48
2018-08-19T01:56:46.532Z,97376.28
2018-08-19T01:59:13.737Z,97380.14
2018-08-19T02:01:47.096Z,97375.11
2018-08-19T02:04:14.364Z,97375.84
2018-08-19T02:06:42.688Z,97379.50
2018-08-19T02:09:11.540Z,97385.75
2018-08-19T02:11:38.972Z,97383.19
2018-08-19T02:14:06.282Z,97384.98
2018-08-19T02:16:33.488Z,97387.66
2018-08-19T02:19:00.595Z,97387.20
2018-08-19T02:21:27.800Z,97385.32
2018-08-19T02:23:55.119Z,97382.81
2018-08-19T02:26:28.711Z,97389.81
2018-08-19T02:28:55.920Z,97392.05
2018-08-19T02:31:23.090Z,97385.48
2018-08-19T02:33:50.237Z,97389.20
2018-08-19T02:36:17.392Z,97385.14
2018-08-19T02:38:44.545Z,97395.00
2018-08-19T02:41:11.719Z,97384.41
2018-08-19T02:43:43.892Z,97389.52
2018-08-19T02:46:11.276Z,97379.95
2018-08-19T02:48:45.036Z,97383.96
2018-08-19T02:51:13.963Z,97383.75
2018-08-19T02:53:42.296Z,97379.39
2018-08-19T02:56:09.862Z,97382.70
2018-08-19T02:58:36.977Z,97382.28
2018-08-19T03:01:04.129Z,97382.58
2018-08-19T03:03:31.602Z,97383.95
2018-08-19T03:06:02.835Z,97382.96
2018-08-19T03:08:30.788Z,97388.54
2018-08-19T03:10:57.960Z,97388.49
2018-08-19T03:13:25.244Z,97378.10
2018-08-19T03:15:53.616Z,97375.86
2018-08-19T03:18:20.793Z,97376.58
2018-08-19T03:20:47.946Z,97374.95
2018-08-19T03:23:15.104Z,97383.80
2018-08-19T03:25:42.308Z,97381.73
2018-08-19T03:28:09.552Z,97381.02
2018-08-19T03:30:36.964Z,97375.59
2018-08-19T03:33:04.177Z,97382.74
2018-08-19T03:35:31.352Z,97375.03
2018-08-19T03:38:04.200Z,97379.44
2018-08-19T03:40:31.307Z,97376.78
2018-08-19T03:42:58.456Z,97381.73
2018-08-19T03:45:25.955Z,97378.19
2018-08-19T03:47:53.131Z,97373.87
2018-08-19T03:50:21.506Z,97380.53
2018-08-19T03:52:49.192Z,97382.64
2018-08-19T03:55:22.002Z,97377.63
2018-08-19T03:57:49.355Z,97383.31
2018-08-19T04:00:17.788Z,97384.47
2018-08-19T04:02:45.009Z,97386.79
2018-08-19T04:05:12.156Z,97386.02
2018-08-19T04:07:39.362Z,97386.59
2018-08-19T04:12:40.497Z,97386.16
2018-08-19T04:15:08.525Z,97385.69
2018-08-19T04:17:35.628Z,97385.94
2018-08-19T04:20:03.195Z,97390.11
2018-08-19T04:22:30.329Z,97391.64
2018-08-19T04:24:57.476Z,97394.91
2018-08-19T04:27:24.608Z,97394.05
2018-08-19T04:29:51.772Z,97386.42
2018-08-19T04:32:24.801Z,97391.11
2018-08-19T04:34:52.196Z,97388.97
2018-08-19T04:37:19.548Z,97388.06
2018-08-19T04:39:46.673Z,97388.27
2018-08-19T04:42:13.945Z,97380.36
2018-08-19T04:44:41.066Z,97385.50
2018-08-19T04:47:20.254Z,97383.11
2018-08-19T04:49:48.207Z,97389.45
2018-08-19T04:52:20.180Z,97388.34
2018-08-19T04:54:47.340Z,97385.59
2018-08-19T04:57:14.492Z,97383.07
2018-08-19T04:59:41.677Z,97381.77
2018-08-19T05:02:08.904Z,97382.92
2018-08-19T05:04:36.085Z,97386.50
2018-08-19T05:07:03.315Z,97387.77
2018-08-19T05:09:30.566Z,97390.11
2018-08-19T05:11:57.710Z,97387.41
2018-08-19T05:14:24.889Z,97396.25
2018-08-19T05:16:52.008Z,97393.41
2018-08-19T05:19:19.181Z,97394.49
2018-08-19T05:21:46.315Z,97397.45
2018-08-19T05:24:13.455Z,97397.34
2018-08-19T05:26:40.617Z,97394.98
2018-08-19T05:29:09.263Z,97405.23
2018-08-19T05:31:46.833Z,97407.03
2018-08-19T05:34:19.564Z,97405.58
2018-08-19T05:36:48.572Z,97408.48
2018-08-19T05:39:15.924Z,97407.21
2018-08-19T05:41:57.804Z,97405.88
2018-08-19T05:44:24.939Z,97403.75
2018-08-19T05:46:52.384Z,97405.58
2018-08-19T05:49:19.761Z,97412.61
2018-08-19T05:51:46.899Z,97403.23
2018-08-19T05:54:14.045Z,97407.55
2018-08-19T05:56:41.194Z,97408.07
2018-08-19T05:59:08.320Z,97415.80
2018-08-19T06:01:35.493Z,97411.67
2018-08-19T06:04:02.661Z,97411.58
2018-08-19T06:06:29.812Z,97411.28
2018-08-19T06:08:56.989Z,97404.05
2018-08-19T06:11:24.161Z,97398.75
2018-08-19T06:13:51.277Z,97404.81
2018-08-19T06:16:18.436Z,97402.87
2018-08-19T06:18:45.591Z,97403.58
2018-08-19T06:21:12.714Z,97399.14
2018-08-19T06:23:39.873Z,97398.64
2018-08-19T06:26:07.121Z,97405.64
2018-08-19T06:28:34.269Z,97399.12
2018-08-19T06:31:01.468Z,97401.67
2018-08-19T06:33:28.548Z,97402.09
2018-08-19T06:35:55.717Z,97403.13
2018-08-19T06:38:22.853Z,97400.61
2018-08-19T06:40:49.989Z,97405.92
2018-08-19T06:43:17.174Z,97404.97
2018-08-19T06:45:44.220Z,97404.22
2018-08-19T06:48:11.427Z,97398.33
2018-08-19T06:50:38.613Z,97401.61
2018-08-19T06:53:05.814Z,97399.34
2018-08-19T06:55:32.964Z,97396.17
2018-08-19T06:58:00.273Z,97399.34
2018-08-19T07:00:29.192Z,97398.07
2018-08-19T07:03:01.493Z,97402.27
2018-08-19T07:05:28.819Z,97403.04
2018-08-19T07:07:56.060Z,97408.78
2018-08-19T07:10:29.012Z,97415.72
2018-08-19T07:13:02.641Z,97413.47
2018-08-19T07:15:29.862Z,97409.48
2018-08-19T07:17:57.127Z,97410.23
2018-08-19T07:20:24.345Z,97417.88
2018-08-19T07:22:51.524Z,97414.97
2018-08-19T07:25:18.606Z,97413.73
2018-08-19T07:27:45.757Z,97416.66
2018-08-19T07:30:12.902Z,97418.83
2018-08-19T07:32:40.165Z,97418.08
2018-08-19T07:35:07.348Z,97425.61
2018-08-19T07:37:34.500Z,97423.45
2018-08-19T07:40:01.758Z,97426.34
2018-08-19T07:42:28.906Z,97419.14
2018-08-19T07:44:56.108Z,97421.59
2018-08-19T07:47:23.237Z,97418.28
2018-08-19T07:49:50.425Z,97419.96
2018-08-19T07:52:17.553Z,97426.41
2018-08-19T07:54:44.707Z,97416.51
2018-08-19T07:57:21.213Z,97419.89
2018-08-19T07:59:48.340Z,97422.70
2018-08-19T08:02:15.544Z,97422.70
2018-08-19T08:04:43.830Z,97424.06
2018-08-19T08:07:13.069Z,97416.79
2018-08-19T08:09:41.000Z,97412.23
2018-08-19T08:12:08.662Z,97417.20
2018-08-19T08:14:37.505Z,97416.78
2018-08-19T08:17:06.581Z,97413.56
2018-08-19T08:19:33.911Z,97413.37
2018-08-19T08:22:07.544Z,97414.94
2018-08-19T08:24:34.698Z,97413.09
2018-08-19T08:27:01.901Z,97415.68
2018-08-19T08:29:29.067Z,97408.73
2018-08-19T08:31:57.265Z,97417.01
2018-08-19T08:34:26.377Z,97413.30
2018-08-19T08:37:02.676Z,97412.53
2018-08-19T08:39:31.173Z,97414.79
2018-08-19T08:41:58.872Z,97407.23
2018-08-19T08:44:26.461Z,97411.55
2018-08-19T08:46:53.647Z,97405.69
2018-08-19T08:49:20.788Z,97400.52
2018-08-19T08:51:47.972Z,97394.00
2018-08-19T08:54:15.131Z,97394.42
2018-08-19T08:56:42.339Z,97393.24
2018-08-19T08:59:09.557Z,97392.16
2018-08-19T09:01:36.733Z,97393.13
2018-08-19T09:04:03.946Z,97387.03
2018-08-19T09:06:31.215Z,97387.29
2018-08-19T09:08:58.392Z,97387.82
2018-08-19T09:11:25.597Z,97379.93
2018-08-19T09:13:53.178Z,97379.89
2018-08-19T09:16:20.645Z,97376.28
2018-08-19T09:18:47.899Z,97374.85
2018-08-19T09:21:15.348Z,97372.24
2018-08-19T09:23:42.497Z,97380.07
2018-08-19T09:26:09.631Z,97374.73
2018-08-19T09:28:36.744Z,97376.28
2018-08-19T09:31:03.908Z,97377.94
2018-08-19T09:33:31.085Z,97371.16
2018-08-19T09:35:58.240Z,97369.17
2018-08-19T09:38:25.392Z,97358.51
2018-08-19T09:40:52.676Z,97360.52
2018-08-19T09:43:19.748Z,97356.11
2018-08-19T09:45:47.228Z,97358.90
2018-08-19T09:48:14.939Z,97347.89
2018-08-19T09:50:42.818Z,97345.72
2018-08-19T09:53:09.984Z,97348.94
2018-08-19T09:55:40.422Z,97354.77
2018-08-19T09:58:16.740Z,97346.33
2018-08-19T10:00:49.687Z,97339.94
2018-08-19T10:03:17.065Z,97339.20
2018-08-19T10:05:44.264Z,97337.83
2018-08-19T10:08:11.466Z,97330.84
2018-08-19T10:10:38.624Z,97334.33
2018-08-19T10:13:06.171Z,97325.44
2018-08-19T10:15:34.004Z,97328.45
2018-08-19T10:18:01.169Z,97330.34
2018-08-19T10:20:28.299Z,97327.98
2018-08-19T10:22:56.509Z,97326.69
2018-08-19T10:25:23.655Z,97322.28
2018-08-19T10:27:52.117Z,97322.17
2018-08-19T10:30:19.940Z,97322.16
2018-08-19T10:32:58.044Z,97322.19
2018-08-19T10:35:26.936Z,97316.48
2018-08-19T10:37:54.357Z,97310.61
2018-08-19T10:40:21.533Z,97317.47
2018-08-19T10:42:48.669Z,97309.27
2018-08-19T10:45:20.408Z,97309.66
2018-08-19T10:47:47.566Z,97299.34
2018-08-19T10:50:14.721Z,97297.72
2018-08-19T10:52:42.650Z,97302.81
2018-08-19T10:55:10.836Z,97298.06
2018-08-19T10:57:38.174Z,97297.48
2018-08-19T11:00:10.649Z,97295.77
2018-08-19T11:02:37.751Z,97301.06
2018-08-19T11:05:04.928Z,97287.63
2018-08-19T11:07:32.157Z,97287.66
2018-08-19T11:10:16.625Z,97286.98
2018-08-19T11:12:44.243Z,97284.95
2018-08-19T11:15:27.800Z,97271.00
2018-08-19T11:17:55.665Z,97270.59
2018-08-19T11:20:28.604Z,97271.20
2018-08-19T11:22:56.505Z,97270.87
2018-08-19T11:25:26.427Z,97270.87
2018-08-19T11:27:54.098Z,97271.81
2018-08-19T11:30:23.268Z,97267.95
2018-08-19T11:32:50.678Z,97274.84
2018-08-19T11:35:17.861Z,97269.55
2018-08-19T11:37:45.011Z,97267.85
2018-08-19T11:40:12.121Z,97265.23
2018-08-19T11:42:39.344Z,97264.03
2018-08-19T11:45:06.484Z,97263.64
2018-08-19T11:47:33.694Z,97260.67
2018-08-19T11:50:00.868Z,97257.92
2018-08-19T11:52:28.071Z,97257.66
2018-08-19T11:54:55.298Z,97253.19
2018-08-19T11:57:23.450Z,97253.02
2018-08-19T11:59:51.240Z,97244.45
2018-08-19T12:02:19.662Z,97231.83
2018-08-19T12:04:47.156Z,97248.17
2018-08-19T12:07:14.353Z,97248.00
2018-08-19T12:09:42.468Z,97241.83
2018-08-19T12:12:09.602Z,97237.44
2018-08-19T12:14:36.944Z,97231.31
2018-08-19T12:17:10.286Z,97237.20
2018-08-19T12:19:39.503Z,97233.04
2018-08-19T12:22:06.962Z,97226.45
2018-08-19T12:24:37.523Z,97222.38
2018-08-19T12:27:06.413Z,97217.34
2018-08-19T12:29:34.787Z,97219.13
2018-08-19T12:32:09.953Z,97215.86
2018-08-19T12:34:39.674Z,97214.19
2018-08-19T12:37:07.423Z,97208.27
2018-08-19T12:39:34.625Z,97198.44
2018-08-19T12:42:02.525Z,97201.83
2018-08-19T12:44:29.767Z,97194.67
2018-08-19T12:47:20.166Z,97190.84
2018-08-19T12:49:51.081Z,97199.38
2018-08-19T12:52:20.451Z,97196.11
2018-08-19T12:54:53.488Z,97190.12
2018-08-19T12:57:20.932Z,97184.70
2018-08-19T12:59:48.095Z,97185.25
2018-08-19T13:02:15.276Z,97173.62
2018-08-19T13:04:42.417Z,97172.42
2018-08-19T13:07:11.096Z,97172.57
2018-08-19T13:09:38.342Z,97177.92
2018-08-19T13:12:07.928Z,97164.89
2018-08-19T13:14:35.088Z,97158.23
2018-08-19T13:17:02.280Z,97164.67
2018-08-19T13:19:29.897Z,97166.36
2018-08-19T13:21:57.230Z,97161.72
2018-08-19T13:24:30.425Z,97163.18
2018-08-19T13:26:58.068Z,97164.23
2018-08-19T13:29:25.197Z,97161.88
2018-08-19T13:31:52.380Z,97163.86
2018-08-19T13:34:19.521Z,97164.13
2018-08-19T13:36:46.692Z,97159.07
2018-08-19T13:39:13.873Z,97152.06
2018-08-19T13:41:41.111Z,97151.53
2018-08-19T13:44:08.333Z,97151.58
2018-08-19T13:46:35.631Z,97145.38
2018-08-19T13:49:02.806Z,97145.56
2018-08-19T13:51:30.005Z,97145.45
2018-08-19T13:53:57.392Z,97130.27
2018-08-19T13:56:24.603Z,97136.61
2018-08-19T13:58:51.775Z,97133.08
2018-08-19T14:01:18.980Z,97132.63
2018-08-19T14:03:46.166Z,97137.02
2018-08-19T14:06:13.300Z,97133.63
2018-08-19T14:08:40.496Z,97124.22
2018-08-19T14:11:07.739Z,97125.77
2018-08-19T14:13:35.043Z,97129.63
2018-08-19T14:16:04.645Z,97130.91
2018-08-19T14:18:31.910Z,97129.95
2018-08-19T14:20:59.029Z,97123.86
2018-08-19T14:23:26.255Z,97135.75
2018-08-19T14:25:53.379Z,97122.59
2018-08-19T14:28:20.528Z,97129.60
2018-08-19T14:30:47.873Z,97126.76
2018-08-19T14:33:14.990Z,97121.27
2018-08-19T14:35:42.282Z,97118.13
2018-08-19T14:38:09.441Z,97109.36
2018-08-19T14:40:36.764Z,97107.94
2018-08-19T14:43:04.085Z,97110.58
2018-08-19T14:45:31.318Z,97104.05
2018-08-19T14:47:58.470Z,97102.17
2018-08-19T14:50:25.674Z,97103.58
2018-08-19T14:52:52.894Z,97099.48
2018-08-19T14:55:20.096Z,97096.27
2018-08-19T14:57:47.268Z,97059.25
2018-08-19T15:00:15.485Z,97094.73
2018-08-19T15:02:42.688Z,97094.33
2018-08-19T15:05:12.932Z,97095.89
2018-08-19T15:07:40.133Z,97086.96
2018-08-19T15:10:07.419Z,97083.56
2018-08-19T15:12:34.492Z,97083.58
2018-08-19T15:15:01.886Z,97085.45
2018-08-19T15:17:29.178Z,97082.97
2018-08-19T15:19:56.571Z,97086.61
2018-08-19T15:22:23.677Z,97074.40
2018-08-19T15:24:51.232Z,97077.23
2018-08-19T15:27:18.517Z,97076.33
2018-08-19T15:29:47.525Z,97080.34
2018-08-19T15:32:14.876Z,97076.55
2018-08-19T15:34:41.857Z,97070.34
2018-08-19T15:37:09.032Z,97069.14
2018-08-19T15:39:36.208Z,97064.73
2018-08-19T15:42:03.428Z,97063.08
2018-08-19T15:44:30.550Z,97065.02
2018-08-19T15:46:57.807Z,97064.58
2018-08-19T15:49:24.925Z,97058.18
2018-08-19T15:51:52.352Z,97053.45
2018-08-19T15:54:19.616Z,97049.91
2018-08-19T15:56:46.881Z,97045.48
2018-08-19T15:59:14.077Z,97050.22
2018-08-19T16:01:41.245Z,97045.91
2018-08-19T16:04:13.560Z,97044.66
2018-08-19T16:06:41.973Z,97045.56
2018-08-19T16:09:11.793Z,97046.47
2018-08-19T16:11:38.958Z,97038.53
2018-08-19T16:14:14.217Z,97043.41
2018-08-19T16:16:41.365Z,97042.68
2018-08-19T16:19:08.514Z,97043.09
2018-08-19T16:21:35.699Z,97034.87
2018-08-19T16:24:02.913Z,97028.64
2018-08-19T16:26:30.382Z,97026.87
2018-08-19T16:28:57.549Z,97027.38
2018-08-19T16:31:24.741Z,97027.98
2018-08-19T16:33:51.945Z,97024.08
2018-08-19T16:36:19.112Z,97026.22
2018-08-19T16:38:46.310Z,97022.63
2018-08-19T16:41:13.510Z,97021.77
2018-08-19T16:43:40.688Z,97016.62
2018-08-19T16:46:07.882Z,97019.13
2018-08-19T16:48:35.100Z,97026.58
2018-08-19T16:51:02.373Z,97020.08
2018-08-19T16:53:29.503Z,97022.98
2018-08-19T16:55:56.728Z,97025.69
2018-08-19T16:58:23.968Z,97024.77
2018-08-19T17:00:51.155Z,97019.34
2018-08-19T17:03:29.864Z,97019.08
2018-08-19T17:05:57.024Z,97024.17
2018-08-19T17:08:24.181Z,97014.69
2018-08-19T17:10:51.369Z,97014.53
2018-08-19T17:13:18.489Z,97016.49
2018-08-19T17:15:45.670Z,97026.05
2018-08-19T17:18:12.824Z,97019.78
2018-08-19T17:20:40.200Z,97022.18
2018-08-19T17:23:07.364Z,97023.36
2018-08-19T17:25:34.552Z,97028.50
2018-08-19T17:28:08.129Z,97024.77
2018-08-19T17:30:35.331Z,97030.95
2018-08-19T17:33:07.686Z,97028.16
2018-08-19T17:35:34.884Z,97030.33
2018-08-19T17:38:02.054Z,97027.92
2018-08-19T17:40:29.901Z,97028.80
2018-08-19T17:42:57.120Z,97034.25
2018-08-19T17:45:24.436Z,97030.98
2018-08-19T17:47:51.805Z,97041.30
2018-08-19T17:50:24.373Z,97035.19
2018-08-19T17:52:51.592Z,97036.23
2018-08-19T17:55:18.866Z,97035.90
2018-08-19T17:57:46.065Z,97038.55
2018-08-19T18:00:13.275Z,97043.47
2018-08-19T18:02:40.402Z,97043.94
2018-08-19T18:05:07.865Z,97042.28
2018-08-19T18:07:35.001Z,97048.14
2018-08-19T18:10:03.763Z,97048.25
2018-08-19T18:12:30.939Z,97055.94
2018-08-19T18:14:58.299Z,97058.14
2018-08-19T18:17:25.384Z,97055.70
2018-08-19T18:19:52.614Z,97054.38
2018-08-19T18:22:20.533Z,97065.53
2018-08-19T18:24:53.415Z,97063.66
2018-08-19T18:27:20.910Z,97065.56
2018-08-19T18:29:48.407Z,97065.20
2018-08-19T18:32:15.845Z,97062.48
2018-08-19T18:34:43.460Z,97064.29
2018-08-19T18:37:10.670Z,97066.46
2018-08-19T18:39:38.734Z,97067.36
2018-08-19T18:42:05.958Z,97065.95
2018-08-19T18:44:33.162Z,97064.19
2018-08-19T18:47:00.361Z,97071.05
2018-08-19T18:49:27.571Z,97066.31
2018-08-19T18:51:57.856Z,97066.84
2018-08-19T18:54:29.250Z,97072.27
2018-08-19T18:56:56.853Z,97067.61
2018-08-19T18:59:24.054Z,97072.44
2018-08-19T19:01:52.880Z,97072.75
2018-08-19T19:04:20.108Z,97072.14
2018-08-19T19:06:47.342Z,97075.02
2018-08-19T19:09:14.625Z,97073.88
2018-08-19T19:11:41.802Z,97072.16
2018-08-19T19:14:16.517Z,97068.20
2018-08-19T19:16:46.687Z,97073.48
2018-08-19T19:19:13.874Z,97074.22
2018-08-19T19:21:42.124Z,97076.11
2018-08-19T19:24:09.626Z,97075.67
2018-08-19T19:26:40.854Z,97075.27
2018-08-19T19:29:14.125Z,97077.91
2018-08-19T19:31:41.334Z,97073.30
2018-08-19T19:34:13.831Z,97071.23
2018-08-19T19:36:42.231Z,97070.67
2018-08-19T19:39:09.647Z,97075.66
2018-08-19T19:41:36.904Z,97072.39
2018-08-19T19:44:20.204Z,97073.11
2018-08-19T19:46:47.446Z,97072.96
2018-08-19T19:49:14.677Z,97077.39
2018-08-19T19:51:46.034Z,97083.57
2018-08-19T19:54:13.254Z,97082.61
2018-08-19T19:56:40.405Z,97085.26
2018-08-19T19:59:07.630Z,97084.38
2018-08-19T20:01:34.869Z,97082.45
2018-08-19T20:04:03.054Z,97086.97
2018-08-19T20:06:30.264Z,97084.64
2018-08-19T20:08:59.091Z,97090.96
2018-08-19T20:11:26.353Z,97097.94
2018-08-19T20:13:58.009Z,97096.00
2018-08-19T20:16:25.380Z,97092.13
2018-08-19T20:18:52.896Z,97095.62
2018-08-19T20:21:24.294Z,97097.59
2018-08-19T20:23:52.761Z,97101.33
2018-08-19T20:26:20.286Z,97105.13
2018-08-19T20:28:49.141Z,97102.88
2018-08-19T20:31:16.380Z,97102.65
2018-08-19T20:33:44.290Z,97100.91
2018-08-19T20:36:11.567Z,97104.92
2018-08-19T20:38:38.804Z,97106.64
2018-08-19T20:41:05.996Z,97104.36
2018-08-19T20:43:33.218Z,97109.34
2018-08-19T20:46:00.404Z,97110.55
2018-08-19T20:48:27.597Z,97108.22
2018-08-19T20:50:54.766Z,97110.51
2018-08-19T20:53:21.942Z,97112.06
2018-08-19T20:55:49.461Z,97111.50
2018-08-19T20:58:16.642Z,97116.34
2018-08-19T21:00:43.797Z,97111.32
2018-08-19T21:03:11.244Z,97109.78
2018-08-19T21:05:38.809Z,97118.73
2018-08-19T21:08:09.249Z,97117.39
2018-08-19T21:10:37.795Z,97117.64
2018-08-19T21:13:05.221Z,97119.89
2018-08-19T21:15:35.529Z,97118.21
2018-08-19T21:18:02.759Z,97118.27
2018-08-19T21:33:29.465Z,97120.86
2018-08-19T21:35:56.634Z,97123.56
2018-08-19T21:38:23.870Z,97123.77
2018-08-19T21:40:52.934Z,97127.13
2018-08-19T21:43:20.747Z,97129.13
2018-08-19T21:45:49.560Z,97131.84
2018-08-19T21:48:16.753Z,97133.29
2018-08-19T21:50:43.934Z,97136.11
2018-08-19T21:53:12.550Z,97134.51
2018-08-19T21:55:41.850Z,97137.59
2018-08-19T21:58:09.184Z,97135.77
2018-08-19T22:00:37.702Z,97130.23
2018-08-19T22:03:14.059Z,97135.83
2018-08-19T22:05:41.233Z,97127.77
2018-08-19T22:08:08.416Z,97129.05
2018-08-19T22:10:35.590Z,97129.44
2018-08-19T22:13:04.133Z,97131.20
2018-08-19T22:15:35.601Z,97127.80
2018-08-19T22:20:36.733Z,97127.15
2018-08-19T22:23:04.220Z,97126.30
2018-08-19T22:25:31.449Z,97129.31
2018-08-19T22:27:58.615Z,97126.38
2018-08-19T22:30:26.871Z,97131.65
2018-08-19T22:32:54.015Z,97130.25
2018-08-19T22:35:21.176Z,97133.95
2018-08-19T22:37:48.627Z,97136.27
2018-08-19T22:40:18.538Z,97133.84
2018-08-19T22:42:45.653Z,97140.67
2018-08-19T22:45:12.797Z,97143.92
2018-08-19T22:47:39.912Z,97134.22
2018-08-19T22:52:41.117Z,97134.66
2018-08-19T22:55:08.239Z,97137.64
2018-08-19T22:57:35.384Z,97134.69
2018-08-19T23:00:04.016Z,97133.41
2018-08-19T23:02:31.179Z,97135.87
2018-08-19T23:05:05.083Z,97141.78
2018-08-19T23:07:32.309Z,97133.18
2018-08-19T23:09:59.517Z,97134.66
2018-08-19T23:12:26.665Z,97130.78
2018-08-19T23:15:05.431Z,97133.69
2018-08-19T23:17:32.596Z,97133.92
2018-08-19T23:19:59.740Z,97136.24
2018-08-19T23:22:26.847Z,97137.06
2018-08-19T23:24:53.964Z,97128.69
2018-08-19T23:27:21.090Z,97133.21
2018-08-19T23:29:48.208Z,97138.31
2018-08-19T23:32:15.360Z,97134.42
2018-08-19T23:34:42.481Z,97139.33
2018-08-19T23:37:09.640Z,97140.38
2018-08-19T23:39:36.789Z,97141.28
2018-08-19T23:42:03.969Z,97137.09
2018-08-19T23:44:31.137Z,97136.03
2018-08-19T23:46:58.228Z,97138.85
2018-08-19T23:49:25.396Z,97133.22
2018-08-19T23:51:52.516Z,97134.88
2018-08-19T23:54:19.665Z,97132.87
2018-08-19T23:56:46.812Z,97133.92
2018-08-19T23:59:15.375Z,97130.89
